Time;durP1;ratioP1;P1;durP2;ratioP2;P2;SDS_P1;SDS_P2;PMS_P1;PMS_P2;Temp;Humidity;BMP_temperature;BMP_pressure;BME280_temperature;BME280_humidity;BME280_pressure;Samples;Min_cycle;Max_cycle;Signal;HPM_P1;HPM_P2
2021/03/18 00:01:15;;;;;;;10.87;7.03;;;6.20;95.40;;;;;;4786977;29;20049;-77
2021/03/18 00:03:42;;;;;;;11.35;7.38;;;6.00;95.50;;;;;;4802139;29;20047;-79
2021/03/18 00:06:08;;;;;;;12.30;7.25;;;6.00;95.70;;;;;;4803669;29;20093;-77
2021/03/18 00:08:35;;;;;;;12.98;7.70;;;6.00;95.40;;;;;;4802689;29;20031;-77
2021/03/18 00:11:04;;;;;;;12.68;7.75;;;6.10;95.20;;;;;;4802434;29;20043;-77
2021/03/18 00:13:31;;;;;;;10.48;7.53;;;6.00;95.10;;;;;;4786251;29;20050;-77
2021/03/18 00:15:57;;;;;;;11.40;7.28;;;5.80;94.90;;;;;;4802335;29;20048;-77
2021/03/18 00:18:31;;;;;;;13.85;7.32;;;5.70;95.30;;;;;;4802429;29;20030;-79
2021/03/18 00:21:00;;;;;;;11.85;7.80;;;5.80;95.60;;;;;;4803763;29;20041;-79
2021/03/18 00:23:26;;;;;;;13.73;7.60;;;5.70;95.50;;;;;;4802320;29;20042;-77
2021/03/18 00:25:52;;;;;;;13.15;7.57;;;5.70;95.60;;;;;;4802219;29;20042;-78
2021/03/18 00:28:17;;;;;;;13.98;8.13;;;5.60;95.60;;;;;;4802498;29;20466;-77
2021/03/18 00:30:43;;;;;;;15.48;8.05;;;5.60;95.50;;;;;;4802339;29;20062;-80
2021/03/18 00:33:09;;;;;;;13.45;8.38;;;5.50;95.40;;;;;;4788197;29;20394;-80
2021/03/18 00:35:35;;;;;;;13.95;7.70;;;5.60;95.50;;;;;;4801886;29;20092;-79
2021/03/18 00:38:02;;;;;;;15.38;7.70;;;5.50;95.60;;;;;;4802007;29;20189;-79
2021/03/18 00:40:29;;;;;;;12.23;8.03;;;5.60;95.60;;;;;;4785941;29;20038;-79
2021/03/18 00:43:00;;;;;;;11.93;7.55;;;5.70;95.90;;;;;;4786131;29;20057;-79
2021/03/18 00:45:29;;;;;;;13.38;8.13;;;5.60;96.00;;;;;;4803970;29;20027;-80
2021/03/18 00:47:55;;;;;;;15.50;8.27;;;5.60;96.00;;;;;;4807197;29;20125;-80
2021/03/18 00:50:46;;;;;;;12.23;8.13;;;5.60;96.10;;;;;;4805367;29;20077;-80
2021/03/18 00:53:15;;;;;;;12.75;8.15;;;5.70;96.20;;;;;;4793090;29;20374;-78
2021/03/18 00:55:42;;;;;;;13.20;8.70;;;5.70;96.20;;;;;;4805461;29;20055;-79
2021/03/18 00:58:08;;;;;;;14.43;7.88;;;5.50;96.40;;;;;;4805493;29;20573;-78
2021/03/18 01:00:52;;;;;;;15.50;9.35;;;5.60;96.50;;;;;;4805395;29;20397;-78
2021/03/18 01:03:17;;;;;;;16.85;8.30;;;5.80;96.50;;;;;;4805248;29;20031;-79
2021/03/18 01:05:46;;;;;;;12.85;7.90;;;5.80;96.30;;;;;;4806694;29;20066;-79
2021/03/18 01:08:15;;;;;;;13.77;8.13;;;5.80;96.20;;;;;;4804897;29;20061;-79
2021/03/18 01:10:50;;;;;;;15.23;8.55;;;5.60;96.40;;;;;;4804888;29;20039;-79
2021/03/18 01:13:19;;;;;;;15.98;8.75;;;5.70;96.70;;;;;;4804927;29;20461;-78
2021/03/18 01:16:00;;;;;;;14.95;8.80;;;5.80;96.50;;;;;;4804788;29;20419;-79
2021/03/18 01:18:38;;;;;;;14.18;8.68;;;5.90;96.40;;;;;;4805021;29;20633;-80
2021/03/18 01:21:06;;;;;;;18.48;9.23;;;5.90;96.40;;;;;;4806839;29;20261;-79
2021/03/18 01:23:32;;;;;;;14.65;9.38;;;5.90;96.30;;;;;;4805277;29;20099;-80
2021/03/18 01:25:59;;;;;;;15.02;9.10;;;5.90;96.50;;;;;;4804932;29;20144;-80
2021/03/18 01:28:25;;;;;;;16.15;8.88;;;5.80;96.40;;;;;;4803880;29;20440;-78
2021/03/18 01:30:53;;;;;;;21.30;9.30;;;5.80;96.60;;;;;;4788896;29;20042;-79
2021/03/18 01:33:19;;;;;;;17.20;10.20;;;5.80;96.70;;;;;;4804241;29;20303;-79
2021/03/18 01:35:45;;;;;;;18.23;10.75;;;5.70;96.80;;;;;;4806423;29;20062;-82
2021/03/18 01:38:11;;;;;;;17.30;9.68;;;5.50;96.90;;;;;;4805105;29;20132;-81
2021/03/18 01:40:38;;;;;;;17.85;9.98;;;5.70;97.00;;;;;;4804305;29;20170;-80
2021/03/18 01:43:03;;;;;;;14.63;9.35;;;5.80;96.80;;;;;;4801520;29;20050;-79
2021/03/18 01:45:29;;;;;;;15.15;10.18;;;5.90;96.80;;;;;;4803342;29;20031;-79
2021/03/18 01:47:56;;;;;;;16.75;9.98;;;6.00;96.70;;;;;;4806005;29;20093;-79
2021/03/18 01:50:25;;;;;;;17.73;10.55;;;5.80;96.60;;;;;;4804370;29;20051;-78
2021/03/18 01:52:50;;;;;;;15.70;10.13;;;5.70;96.60;;;;;;4804471;29;20047;-81
2021/03/18 01:55:40;;;;;;;15.88;10.20;;;5.60;96.90;;;;;;4804321;29;20098;-78
2021/03/18 01:58:09;;;;;;;18.02;10.73;;;5.60;96.80;;;;;;4803385;29;20035;-80
2021/03/18 02:00:37;;;;;;;18.80;10.13;;;5.60;96.90;;;;;;4804134;29;20480;-77
2021/03/18 02:03:04;;;;;;;18.27;10.52;;;5.60;97.10;;;;;;4805851;29;20068;-79
2021/03/18 02:05:30;;;;;;;17.08;10.48;;;5.60;97.00;;;;;;4804380;29;20127;-81
2021/03/18 02:07:57;;;;;;;19.23;11.02;;;5.50;97.00;;;;;;4804195;29;20034;-78
2021/03/18 02:10:24;;;;;;;19.10;10.05;;;5.60;97.10;;;;;;4788047;29;20459;-79
2021/03/18 02:12:51;;;;;;;20.25;10.85;;;5.50;97.30;;;;;;4804083;29;20115;-81
2021/03/18 02:15:18;;;;;;;19.63;10.50;;;5.50;97.40;;;;;;4803772;29;20079;-80
2021/03/18 02:18:16;;;;;;;17.90;10.07;;;5.60;97.20;;;;;;4805380;29;20026;-79
2021/03/18 02:20:44;;;;;;;;;;;5.60;97.20;;;;;;4804583;29;20107;-80
2021/03/18 02:23:43;;;;;;;15.95;10.23;;;5.50;97.20;;;;;;4787464;29;19928;-79
2021/03/18 02:26:37;;;;;;;16.75;10.07;;;5.40;97.20;;;;;;4803225;29;20039;-79
2021/03/18 02:29:40;;;;;;;16.33;10.57;;;5.50;97.40;;;;;;4803408;29;20038;-80
2021/03/18 02:32:27;;;;;;;16.60;10.57;;;5.30;97.40;;;;;;4803738;29;20046;-78
2021/03/18 02:35:04;;;;;;;21.35;11.48;;;5.40;97.40;;;;;;4804255;29;20108;-78
2021/03/18 02:37:31;;;;;;;20.42;11.75;;;5.50;97.40;;;;;;4821823;29;20050;-78
2021/03/18 02:40:20;;;;;;;20.58;11.02;;;5.50;97.20;;;;;;4821701;29;20057;-78
2021/03/18 02:42:53;;;;;;;16.17;10.60;;;5.40;97.20;;;;;;4821301;29;20081;-80
2021/03/18 02:45:20;;;;;;;16.92;11.13;;;5.50;97.10;;;;;;4821872;29;20054;-80
2021/03/18 02:47:49;;;;;;;17.15;10.52;;;5.50;97.10;;;;;;4823293;29;20525;-81
2021/03/18 02:50:16;;;;;;;16.13;11.23;;;5.60;96.90;;;;;;4821343;29;20103;-79
2021/03/18 02:52:46;;;;;;;19.50;11.43;;;5.50;96.80;;;;;;4805221;29;20031;-80
2021/03/18 02:55:12;;;;;;;18.25;10.70;;;5.40;97.00;;;;;;4821356;29;20043;-78
2021/03/18 02:57:39;;;;;;;21.95;11.45;;;5.50;97.00;;;;;;4821339;29;20038;-79
2021/03/18 03:00:09;;;;;;;17.65;11.35;;;5.40;96.90;;;;;;4822937;29;20122;-79
2021/03/18 03:02:37;;;;;;;19.00;11.27;;;5.40;97.10;;;;;;4821040;29;20050;-79
2021/03/18 03:05:05;;;;;;;17.00;10.48;;;5.30;97.20;;;;;;4805051;29;20137;-80
2021/03/18 03:07:32;;;;;;;17.83;10.90;;;5.40;97.10;;;;;;4821081;29;20046;-79
2021/03/18 03:09:59;;;;;;;19.10;11.30;;;5.50;97.10;;;;;;4821077;29;20691;-80
2021/03/18 03:12:28;;;;;;;18.20;11.43;;;5.40;97.00;;;;;;4821558;29;20203;-80
2021/03/18 03:14:55;;;;;;;19.08;11.80;;;5.40;96.90;;;;;;4806527;29;20401;-80
2021/03/18 03:17:23;;;;;;;22.65;13.25;;;5.30;97.00;;;;;;4821761;29;20050;-80
2021/03/18 03:19:50;;;;;;;20.65;11.63;;;5.40;97.10;;;;;;4821469;29;20051;-80
2021/03/18 03:22:16;;;;;;;21.80;11.33;;;5.40;97.00;;;;;;4821357;29;20054;-79
2021/03/18 03:24:44;;;;;;;19.13;11.23;;;5.40;97.00;;;;;;4821437;29;20038;-81
2021/03/18 03:27:12;;;;;;;22.33;11.93;;;5.40;97.00;;;;;;4822795;29;20026;-81
2021/03/18 03:29:44;;;;;;;21.65;12.48;;;5.30;96.90;;;;;;4821113;29;20505;-81
2021/03/18 03:32:11;;;;;;;25.73;12.95;;;5.30;96.90;;;;;;4804610;29;20046;-79
2021/03/18 03:34:38;;;;;;;18.70;11.52;;;5.20;96.90;;;;;;4821206;29;20049;-81
2021/03/18 03:37:05;;;;;;;18.20;11.93;;;5.10;97.20;;;;;;4821129;29;20052;-81
2021/03/18 03:39:32;;;;;;;21.10;11.67;;;5.20;97.10;;;;;;4820660;29;20041;-80
2021/03/18 03:41:58;;;;;;;23.67;13.05;;;5.20;97.10;;;;;;4806107;29;20034;-80
2021/03/18 03:44:24;;;;;;;23.88;12.55;;;5.30;97.00;;;;;;4820847;29;20034;-80
2021/03/18 03:46:50;;;;;;;24.15;13.82;;;5.30;96.80;;;;;;4821052;29;20057;-81
2021/03/18 03:49:16;;;;;;;23.65;13.30;;;5.30;96.90;;;;;;4804713;29;20095;-80
2021/03/18 03:52:15;;;;;;;21.95;12.98;;;5.30;97.00;;;;;;4804597;29;20042;-79
2021/03/18 03:54:46;;;;;;;21.33;12.63;;;5.20;97.00;;;;;;4820709;29;20034;-81
2021/03/18 03:57:21;;;;;;;23.80;13.00;;;5.20;97.10;;;;;;4820978;29;20049;-80
2021/03/18 03:59:48;;;;;;;21.90;13.30;;;5.10;97.00;;;;;;4822185;29;20030;-81
2021/03/18 04:02:15;;;;;;;23.95;13.27;;;5.00;96.90;;;;;;4820155;29;20078;-81
2021/03/18 04:04:45;;;;;;;23.10;12.82;;;5.10;96.90;;;;;;4820366;29;20047;-80
2021/03/18 04:07:15;;;;;;;23.20;13.07;;;5.20;97.00;;;;;;4804428;29;20030;-80
2021/03/18 04:09:45;;;;;;;22.52;13.25;;;5.30;97.10;;;;;;4820638;29;20047;-80
2021/03/18 04:12:13;;;;;;;27.52;13.93;;;5.00;97.10;;;;;;4822137;29;20042;-80
2021/03/18 04:14:45;;;;;;;22.45;13.38;;;4.90;97.20;;;;;;4820672;29;20129;-79
2021/03/18 04:17:12;;;;;;;20.15;13.20;;;4.80;97.80;;;;;;4804127;29;20099;-78
2021/03/18 04:19:40;;;;;;;33.30;15.82;;;4.70;97.70;;;;;;4821504;29;20061;-80
2021/03/18 04:22:09;;;;;;;33.35;16.80;;;4.80;97.80;;;;;;4823928;29;20109;-81
2021/03/18 04:24:36;;;;;;;37.13;18.85;;;4.50;98.00;;;;;;4824083;29;20103;-80
2021/03/18 04:27:02;;;;;;;35.53;18.15;;;4.50;98.40;;;;;;4809435;29;20048;-81
2021/03/18 04:29:31;;;;;;;34.40;18.50;;;4.60;98.20;;;;;;4807602;29;20039;-80
2021/03/18 04:31:59;;;;;;;36.72;18.92;;;4.70;98.20;;;;;;4823629;29;20377;-80
2021/03/18 04:34:26;;;;;;;41.65;18.40;;;4.70;97.90;;;;;;4824015;29;20061;-82
2021/03/18 04:36:53;;;;;;;38.85;19.83;;;4.60;98.00;;;;;;4808181;29;20181;-81
2021/03/18 04:39:19;;;;;;;45.38;20.23;;;4.50;98.30;;;;;;4807373;29;20659;-79
2021/03/18 04:41:45;;;;;;;38.55;18.75;;;4.40;98.70;;;;;;4825208;29;20026;-79
2021/03/18 04:44:13;;;;;;;48.47;20.38;;;4.40;98.50;;;;;;4823277;29;20033;-80
2021/03/18 04:46:42;;;;;;;38.58;18.65;;;4.30;98.50;;;;;;4823641;29;20125;-79
2021/03/18 04:49:08;;;;;;;35.25;17.17;;;4.30;98.80;;;;;;4807617;29;20567;-80
2021/03/18 04:51:34;;;;;;;32.60;17.10;;;4.30;98.60;;;;;;4807683;29;20065;-80
2021/03/18 04:54:00;;;;;;;34.67;17.40;;;4.40;98.60;;;;;;4808904;29;20410;-80
2021/03/18 04:56:27;;;;;;;35.45;17.05;;;4.40;98.40;;;;;;4823488;29;20361;-79
2021/03/18 04:58:54;;;;;;;34.08;17.55;;;4.50;98.50;;;;;;4823588;29;20075;-80
2021/03/18 05:01:22;;;;;;;37.50;18.88;;;4.60;98.30;;;;;;4807400;29;20111;-79
2021/03/18 05:03:48;;;;;;;33.83;18.08;;;4.40;98.20;;;;;;4823371;29;20042;-80
2021/03/18 05:06:14;;;;;;;34.60;17.98;;;4.20;98.60;;;;;;4823058;29;20064;-78
2021/03/18 05:08:42;;;;;;;36.90;17.63;;;4.40;98.50;;;;;;4824984;29;20037;-80
2021/03/18 05:11:09;;;;;;;35.47;18.00;;;4.30;98.50;;;;;;4823492;29;20039;-81
2021/03/18 05:13:36;;;;;;;37.70;19.43;;;4.30;98.70;;;;;;4807310;29;20046;-80
2021/03/18 05:16:03;;;;;;;36.35;18.17;;;4.30;98.60;;;;;;4823268;29;20282;-81
2021/03/18 05:18:31;;;;;;;37.70;18.05;;;4.30;98.60;;;;;;4823604;29;20030;-81
2021/03/18 05:21:00;;;;;;;35.03;17.85;;;4.10;98.50;;;;;;4824752;29;20362;-79
2021/03/18 05:23:26;;;;;;;33.97;17.52;;;3.90;99.00;;;;;;4822762;29;20050;-81
2021/03/18 05:25:51;;;;;;;34.97;17.70;;;3.90;99.10;;;;;;4823118;29;20035;-80
2021/03/18 05:28:17;;;;;;;36.85;18.30;;;3.90;99.20;;;;;;4822834;29;20034;-81
2021/03/18 05:30:43;;;;;;;33.55;17.35;;;4.10;99.00;;;;;;4806224;29;20133;-79
2021/03/18 05:33:09;;;;;;;35.63;17.27;;;4.30;99.00;;;;;;4824384;29;20030;-80
2021/03/18 05:35:38;;;;;;;29.55;16.38;;;4.40;98.50;;;;;;4807101;29;20133;-81
2021/03/18 05:38:04;;;;;;;28.85;14.55;;;4.20;98.30;;;;;;4822744;29;20046;-80
2021/03/18 05:40:32;;;;;;;27.58;15.27;;;4.30;98.40;;;;;;4806630;29;20054;-80
2021/03/18 05:42:58;;;;;;;27.85;15.13;;;4.00;98.30;;;;;;4822541;29;20046;-79
2021/03/18 05:45:24;;;;;;;31.83;15.02;;;4.00;98.30;;;;;;4822714;29;20034;-80
2021/03/18 05:47:51;;;;;;;30.08;14.88;;;3.90;98.50;;;;;;4824259;29;20041;-80
2021/03/18 05:50:19;;;;;;;32.95;17.08;;;4.00;98.50;;;;;;4822734;29;20125;-80
2021/03/18 05:52:46;;;;;;;33.85;17.20;;;3.90;98.60;;;;;;4822601;29;20374;-80
2021/03/18 05:55:12;;;;;;;37.80;17.17;;;3.90;98.50;;;;;;4822577;29;20034;-81
2021/03/18 05:57:40;;;;;;;33.28;17.20;;;3.90;98.50;;;;;;4822196;29;20393;-81
2021/03/18 06:00:11;;;;;;;30.33;16.73;;;3.90;98.80;;;;;;4824043;29;20033;-79
2021/03/18 06:02:38;;;;;;;28.27;15.57;;;4.00;98.50;;;;;;4822606;29;20148;-79
2021/03/18 06:05:12;;;;;;;30.83;15.85;;;4.00;98.40;;;;;;4822333;29;20050;-79
2021/03/18 06:07:41;;;;;;;30.10;15.85;;;4.10;98.80;;;;;;4822370;29;20074;-79
2021/03/18 06:10:09;;;;;;;30.17;14.55;;;4.10;98.20;;;;;;4822427;29;20077;-80
2021/03/18 06:12:40;;;;;;;30.42;15.50;;;4.00;98.10;;;;;;4805740;29;20057;-80
2021/03/18 06:15:08;;;;;;;29.45;14.85;;;4.00;98.40;;;;;;4807367;29;20082;-80
2021/03/18 06:17:34;;;;;;;;;;;4.20;98.40;;;;;;4806519;29;20058;-80
2021/03/18 06:20:00;;;;;;;30.77;15.18;;;4.30;98.30;;;;;;4805737;29;19951;-80
2021/03/18 06:22:36;;;;;;;32.97;16.50;;;4.30;98.30;;;;;;4821896;29;20125;-80
2021/03/18 06:25:06;;;;;;;28.90;14.77;;;4.20;98.30;;;;;;4822275;29;20102;-79
2021/03/18 06:27:32;;;;;;;26.40;14.60;;;4.30;98.30;;;;;;4821658;29;20094;-80
2021/03/18 06:29:58;;;;;;;32.88;16.08;;;4.40;98.40;;;;;;4825310;29;20130;-81
2021/03/18 06:32:25;;;;;;;32.13;16.08;;;4.40;98.50;;;;;;4824525;29;20058;-81
2021/03/18 06:34:56;;;;;;;31.50;16.13;;;4.30;98.50;;;;;;4824248;29;20050;-81
2021/03/18 06:37:41;;;;;;;27.63;14.38;;;4.30;98.50;;;;;;4807291;29;20134;-81
2021/03/18 06:40:20;;;;;;;32.35;16.08;;;4.20;98.60;;;;;;4823153;29;20047;-82
2021/03/18 06:43:00;;;;;;;30.73;15.18;;;4.30;98.80;;;;;;4806635;29;20121;-80
2021/03/18 06:45:37;;;;;;;28.15;14.68;;;4.40;98.50;;;;;;4807267;29;20138;-81
2021/03/18 06:48:09;;;;;;;26.77;16.15;;;4.40;98.60;;;;;;4824748;29;20419;-81
2021/03/18 06:50:47;;;;;;;24.88;14.10;;;4.40;98.50;;;;;;4823128;29;20099;-82
2021/03/18 06:53:24;;;;;;;31.33;13.85;;;4.50;98.50;;;;;;4823237;29;20419;-82
2021/03/18 06:55:51;;;;;;;24.88;12.98;;;4.40;98.40;;;;;;4806486;29;20062;-79
2021/03/18 06:58:28;;;;;;;26.00;14.77;;;4.30;98.40;;;;;;4805951;29;20046;-81
2021/03/18 07:00:57;;;;;;;27.35;15.40;;;4.10;98.50;;;;;;4822094;29;20042;-80
2021/03/18 07:03:35;;;;;;;31.63;16.25;;;4.30;98.60;;;;;;4820868;29;20046;-82
2021/03/18 07:06:09;;;;;;;25.23;13.60;;;4.40;98.70;;;;;;4806418;29;20119;-80
2021/03/18 07:08:39;;;;;;;26.40;14.13;;;4.40;98.60;;;;;;4803035;29;20050;-79
2021/03/18 07:11:20;;;;;;;28.20;14.32;;;4.40;98.60;;;;;;4803092;29;20069;-81
2021/03/18 07:13:46;;;;;;;26.98;14.25;;;4.30;98.50;;;;;;4803359;29;20043;-78
2021/03/18 07:16:13;;;;;;;27.83;15.52;;;4.40;98.30;;;;;;4787376;29;20062;-78
2021/03/18 07:18:40;;;;;;;25.45;13.38;;;4.40;98.40;;;;;;4803327;29;20039;-80
2021/03/18 07:21:13;;;;;;;25.35;13.85;;;4.30;98.30;;;;;;4804904;29;20034;-81
2021/03/18 07:23:47;;;;;;;28.77;14.50;;;4.20;98.60;;;;;;4803367;29;20101;-80
2021/03/18 07:26:17;;;;;;;30.63;15.23;;;4.30;98.70;;;;;;4803253;29;20108;-80
2021/03/18 07:28:47;;;;;;;28.23;14.27;;;4.20;98.60;;;;;;4801967;29;20522;-79
2021/03/18 07:31:13;;;;;;;27.33;14.65;;;4.20;98.90;;;;;;4802882;29;20047;-81
2021/03/18 07:33:40;;;;;;;28.70;14.95;;;4.20;98.80;;;;;;4802727;29;20026;-76
2021/03/18 07:36:06;;;;;;;28.30;15.40;;;4.20;98.90;;;;;;4803997;29;20031;-77
2021/03/18 07:38:35;;;;;;;27.58;15.02;;;4.40;98.80;;;;;;4785957;29;20043;-77
2021/03/18 07:41:01;;;;;;;25.85;14.75;;;4.40;98.50;;;;;;4803351;29;20121;-77
2021/03/18 07:43:27;;;;;;;28.67;15.43;;;4.40;98.80;;;;;;4802425;29;20143;-78
2021/03/18 07:45:53;;;;;;;33.33;16.50;;;4.60;98.80;;;;;;4786469;29;20115;-77
2021/03/18 07:48:22;;;;;;;31.90;16.90;;;4.40;98.90;;;;;;4802858;29;20053;-77
2021/03/18 07:50:50;;;;;;;34.00;16.52;;;4.40;98.90;;;;;;4787787;29;20039;-77
2021/03/18 07:53:18;;;;;;;27.42;15.70;;;4.40;99.30;;;;;;4785818;29;20359;-77
2021/03/18 07:55:45;;;;;;;28.15;16.30;;;4.30;99.40;;;;;;4801743;29;20142;-79
2021/03/18 07:58:11;;;;;;;33.97;16.57;;;4.40;99.20;;;;;;4802311;29;20046;-80
2021/03/18 08:00:41;;;;;;;29.98;16.55;;;4.50;99.00;;;;;;4801876;29;20268;-79
2021/03/18 08:03:22;;;;;;;28.88;15.13;;;4.40;98.90;;;;;;4803698;29;20031;-78
2021/03/18 08:05:48;;;;;;;29.48;15.60;;;4.20;99.30;;;;;;4802447;29;20055;-78
2021/03/18 08:08:32;;;;;;;29.48;16.17;;;4.30;99.30;;;;;;4802309;29;20039;-78
2021/03/18 08:11:13;;;;;;;29.45;16.08;;;4.20;99.50;;;;;;4802129;29;20039;-79
2021/03/18 08:13:41;;;;;;;32.33;16.23;;;4.20;99.40;;;;;;4785930;29;20047;-77
2021/03/18 08:16:28;;;;;;;31.73;15.90;;;4.30;99.60;;;;;;4801915;29;20133;-78
2021/03/18 08:18:54;;;;;;;30.50;15.60;;;4.30;99.70;;;;;;4800928;29;20047;-78
2021/03/18 08:21:31;;;;;;;36.60;18.67;;;4.50;99.50;;;;;;4785901;29;20098;-78
2021/03/18 08:23:57;;;;;;;32.35;17.80;;;4.50;99.50;;;;;;4803396;29;20066;-75
2021/03/18 08:26:37;;;;;;;31.63;16.98;;;4.50;99.40;;;;;;4801376;29;20085;-80
2021/03/18 08:29:06;;;;;;;37.35;17.05;;;4.60;99.20;;;;;;4801701;29;20156;-78
2021/03/18 08:31:32;;;;;;;31.27;16.73;;;4.70;99.10;;;;;;4801835;29;20034;-80
2021/03/18 08:33:59;;;;;;;37.58;18.73;;;4.70;99.00;;;;;;4802097;29;20054;-80
2021/03/18 08:36:30;;;;;;;38.67;19.63;;;4.70;99.00;;;;;;4802200;29;20035;-80
2021/03/18 08:39:20;;;;;;;39.30;18.65;;;5.00;98.90;;;;;;4803694;29;20023;-78
2021/03/18 08:41:46;;;;;;;36.28;18.08;;;5.00;98.80;;;;;;4756093;29;20035;-80
2021/03/18 08:44:22;;;;;;;36.97;18.17;;;5.00;98.80;;;;;;4802218;29;20058;-78
2021/03/18 08:47:04;;;;;;;36.13;16.95;;;5.10;99.00;;;;;;4802062;29;20579;-77
2021/03/18 08:49:38;;;;;;;31.50;16.45;;;5.20;98.70;;;;;;4802029;29;20158;-79
2021/03/18 08:52:19;;;;;;;40.85;19.50;;;5.20;98.60;;;;;;4785950;29;20085;-79
2021/03/18 08:54:49;;;;;;;34.30;18.25;;;4.90;98.80;;;;;;4801858;29;20042;-77
2021/03/18 08:57:21;;;;;;;35.03;16.52;;;4.90;98.90;;;;;;4802167;29;20110;-79
2021/03/18 09:00:09;;;;;;;37.90;18.92;;;5.10;98.90;;;;;;4803659;29;20115;-80
2021/03/18 09:02:35;;;;;;;38.53;18.85;;;5.00;99.20;;;;;;4801423;29;20077;-79
2021/03/18 09:05:12;;;;;;;39.83;18.27;;;5.00;99.00;;;;;;4782287;29;20056;-80
2021/03/18 09:07:39;;;;;;;35.27;17.67;;;4.80;99.20;;;;;;4786250;29;20130;-79
2021/03/18 09:10:06;;;;;;;32.13;16.75;;;4.90;99.30;;;;;;4787287;29;20389;-80
2021/03/18 09:12:45;;;;;;;37.03;18.13;;;5.30;99.30;;;;;;4786870;29;20127;-80
2021/03/18 09:15:19;;;;;;;34.03;16.98;;;5.50;98.80;;;;;;4788800;30;20366;-79
2021/03/18 09:17:46;;;;;;;33.63;16.92;;;5.30;98.40;;;;;;4787258;29;20043;-78
2021/03/18 09:20:15;;;;;;;31.75;16.52;;;5.30;98.30;;;;;;4786787;29;20043;-80
2021/03/18 09:22:41;;;;;;;33.97;16.02;;;5.50;98.20;;;;;;4786582;29;20524;-81
2021/03/18 09:25:08;;;;;;;42.70;18.17;;;5.30;97.90;;;;;;4786757;29;20062;-78
2021/03/18 09:27:39;;;;;;;33.17;17.30;;;5.10;98.10;;;;;;4785787;29;20348;-80
2021/03/18 09:30:23;;;;;;;33.78;17.63;;;5.00;98.30;;;;;;4788659;29;20031;-81
2021/03/18 09:32:49;;;;;;;34.28;17.45;;;5.10;98.30;;;;;;4787237;29;20035;-80
2021/03/18 09:35:16;;;;;;;32.72;16.95;;;5.40;98.10;;;;;;4787026;29;20451;-79
2021/03/18 09:37:44;;;;;;;37.00;18.45;;;5.30;97.70;;;;;;4785671;29;20110;-81
2021/03/18 09:40:11;;;;;;;37.72;19.33;;;5.10;97.70;;;;;;4786911;29;20043;-82
2021/03/18 09:42:38;;;;;;;33.72;18.02;;;5.20;97.80;;;;;;4786698;29;20055;-78
2021/03/18 09:45:06;;;;;;;38.28;17.52;;;5.10;98.00;;;;;;4788586;29;20031;-80
2021/03/18 09:47:32;;;;;;;35.88;18.10;;;5.10;98.10;;;;;;4786695;29;20039;-81
2021/03/18 09:49:59;;;;;;;37.63;19.35;;;5.50;98.00;;;;;;4786621;29;20039;-80
2021/03/18 09:52:27;;;;;;;33.38;18.00;;;5.70;97.50;;;;;;4786240;29;20055;-78
2021/03/18 09:54:55;;;;;;;;;;;5.70;97.60;;;;;;4786326;29;20032;-81
2021/03/18 09:57:21;;;;;;;43.58;18.98;;;5.70;97.30;;;;;;4786954;29;20004;-79
2021/03/18 09:59:53;;;;;;;35.17;18.17;;;5.40;97.40;;;;;;4787894;29;20034;-80
2021/03/18 10:02:28;;;;;;;37.90;18.25;;;5.60;97.30;;;;;;4785389;29;20067;-80
2021/03/18 10:04:54;;;;;;;38.05;18.83;;;5.60;97.40;;;;;;4792316;29;20055;-77
2021/03/18 10:07:29;;;;;;;35.95;17.90;;;5.40;97.10;;;;;;4788458;29;20038;-79
2021/03/18 10:09:55;;;;;;;34.75;15.98;;;5.50;97.30;;;;;;4804130;29;20059;-79
2021/03/18 10:12:22;;;;;;;35.35;16.63;;;5.70;97.00;;;;;;4803971;29;20041;-80
2021/03/18 10:14:57;;;;;;;37.10;16.33;;;5.70;96.70;;;;;;4805422;29;20023;-81
2021/03/18 10:17:30;;;;;;;28.40;15.55;;;5.70;96.70;;;;;;4803410;29;20388;-79
2021/03/18 10:19:59;;;;;;;30.92;16.27;;;5.60;96.80;;;;;;4788202;29;20054;-78
2021/03/18 10:22:36;;;;;;;31.85;16.77;;;5.70;96.90;;;;;;4803946;29;20046;-78
2021/03/18 10:25:12;;;;;;;32.78;17.70;;;5.70;96.80;;;;;;4803614;29;20035;-79
2021/03/18 10:27:40;;;;;;;36.38;17.65;;;5.60;96.70;;;;;;4803747;29;20034;-78
2021/03/18 10:30:28;;;;;;;32.50;17.08;;;5.80;96.90;;;;;;4805114;29;20084;-79
2021/03/18 10:33:12;;;;;;;34.28;17.25;;;5.70;96.50;;;;;;4802424;29;20051;-77
2021/03/18 10:35:59;;;;;;;35.08;16.65;;;5.70;96.60;;;;;;4804001;29;20039;-78
2021/03/18 10:38:36;;;;;;;35.13;16.73;;;5.70;96.60;;;;;;4786808;29;20123;-80
2021/03/18 10:41:19;;;;;;;33.45;17.55;;;5.80;96.50;;;;;;4787345;29;20102;-77
2021/03/18 10:43:47;;;;;;;32.47;15.40;;;5.90;96.50;;;;;;4803355;29;20123;-79
2021/03/18 10:46:18;;;;;;;35.95;16.77;;;6.00;96.10;;;;;;4803183;29;20091;-78
2021/03/18 10:48:51;;;;;;;30.42;16.23;;;6.10;96.00;;;;;;4803209;29;20050;-80
2021/03/18 10:51:19;;;;;;;31.80;15.38;;;6.00;96.00;;;;;;4803119;29;20041;-78
2021/03/18 10:53:46;;;;;;;35.55;16.42;;;5.90;96.20;;;;;;4804501;29;20114;-79
2021/03/18 10:56:18;;;;;;;32.20;16.77;;;6.10;96.20;;;;;;4802603;29;20054;-81
2021/03/18 10:58:44;;;;;;;39.80;18.02;;;6.00;96.00;;;;;;4802968;29;20043;-80
2021/03/18 11:01:19;;;;;;;35.25;16.65;;;6.20;96.10;;;;;;4802990;29;20140;-79
2021/03/18 11:03:46;;;;;;;36.13;16.73;;;6.30;96.10;;;;;;4802697;29;20096;-78
2021/03/18 11:06:32;;;;;;;36.75;17.40;;;6.10;96.00;;;;;;4802698;29;20051;-73
2021/03/18 11:08:59;;;;;;;37.97;18.23;;;6.10;96.30;;;;;;4804108;29;20168;-79
2021/03/18 11:11:28;;;;;;;36.97;17.88;;;6.20;96.30;;;;;;4786861;29;20072;-80
2021/03/18 11:14:07;;;;;;;34.25;17.55;;;6.30;96.30;;;;;;4786504;29;20075;-79
2021/03/18 11:16:33;;;;;;;36.67;17.92;;;6.10;96.30;;;;;;4802288;29;20046;-79
2021/03/18 11:19:02;;;;;;;32.38;17.58;;;6.00;96.30;;;;;;4802393;29;20046;-79
2021/03/18 11:21:35;;;;;;;31.42;16.13;;;6.10;96.40;;;;;;4802564;29;20161;-80
2021/03/18 11:24:05;;;;;;;34.28;15.98;;;5.90;96.40;;;;;;4787888;29;20419;-79
2021/03/18 11:26:32;;;;;;;39.28;17.58;;;6.00;96.50;;;;;;4786687;29;20045;-80
2021/03/18 11:29:03;;;;;;;32.25;16.63;;;6.00;96.60;;;;;;4802146;29;20039;-79
2021/03/18 11:31:29;;;;;;;36.22;16.70;;;6.00;96.30;;;;;;4802353;29;20122;-80
2021/03/18 11:33:56;;;;;;;38.78;17.75;;;5.80;96.50;;;;;;4802623;29;20038;-80
2021/03/18 11:36:22;;;;;;;40.50;17.05;;;5.80;96.80;;;;;;4802451;29;20050;-79
2021/03/18 11:38:49;;;;;;;34.17;17.17;;;5.90;96.60;;;;;;4804053;29;20059;-79
2021/03/18 11:41:16;;;;;;;38.05;18.67;;;5.90;96.70;;;;;;4802735;29;20123;-78
2021/03/18 11:43:42;;;;;;;39.15;18.05;;;5.90;96.60;;;;;;4786172;29;20079;-80
2021/03/18 11:46:08;;;;;;;34.65;17.00;;;6.00;96.80;;;;;;4786599;29;20047;-82
2021/03/18 11:48:34;;;;;;;41.63;17.73;;;6.30;96.50;;;;;;4786490;29;20043;-81
2021/03/18 11:51:00;;;;;;;35.65;17.27;;;6.20;96.20;;;;;;4804094;29;20027;-82
2021/03/18 11:53:28;;;;;;;38.47;18.23;;;6.00;96.50;;;;;;4802456;29;20043;-83
2021/03/18 11:55:54;;;;;;;37.90;18.63;;;6.30;96.60;;;;;;4800576;29;20063;-80
2021/03/18 11:58:20;;;;;;;37.97;17.58;;;6.40;96.30;;;;;;4801948;29;20078;-83
2021/03/18 12:00:46;;;;;;;37.30;16.73;;;6.40;96.30;;;;;;4786610;29;20027;-82
2021/03/18 12:03:13;;;;;;;35.25;17.25;;;6.40;96.40;;;;;;4803884;29;20053;-84
2021/03/18 12:05:40;;;;;;;37.10;17.57;;;6.40;96.50;;;;;;4802451;29;20087;-85
2021/03/18 12:08:06;;;;;;;39.28;18.35;;;6.50;96.50;;;;;;4802005;29;20039;-84
2021/03/18 12:10:32;;;;;;;32.70;16.63;;;6.50;96.40;;;;;;4802500;29;20039;-84
2021/03/18 12:12:58;;;;;;;39.13;16.55;;;6.70;96.30;;;;;;4801382;29;20045;-84
2021/03/18 12:15:23;;;;;;;40.45;17.42;;;6.60;96.20;;;;;;4802673;29;20023;-84
2021/03/18 12:17:49;;;;;;;41.38;17.63;;;6.70;96.20;;;;;;4803934;29;20237;-84
2021/03/18 12:20:18;;;;;;;39.33;17.95;;;6.70;96.30;;;;;;4802094;29;20122;-85
2021/03/18 12:22:49;;;;;;;37.33;17.70;;;6.70;96.30;;;;;;4802122;29;20135;-83
2021/03/18 12:25:17;;;;;;;37.63;18.13;;;6.50;96.50;;;;;;4786133;29;20115;-83
2021/03/18 12:27:43;;;;;;;57.90;32.58;;;6.60;96.60;;;;;;4801795;29;20043;-84
2021/03/18 12:30:11;;;;;;;50.03;22.75;;;6.60;96.90;;;;;;4803568;29;20262;-83
2021/03/18 12:32:37;;;;;;;41.35;19.70;;;6.80;96.60;;;;;;4802464;29;20111;-85
2021/03/18 12:35:04;;;;;;;48.55;22.92;;;6.50;96.40;;;;;;4786127;29;20051;-84
2021/03/18 12:37:30;;;;;;;39.35;18.70;;;6.50;96.60;;;;;;4802308;29;20067;-82
2021/03/18 12:39:56;;;;;;;44.97;19.35;;;6.40;96.70;;;;;;4785816;29;20051;-84
2021/03/18 12:42:21;;;;;;;40.20;20.42;;;6.40;96.90;;;;;;4805257;29;20390;-84
2021/03/18 12:44:47;;;;;;;38.63;18.95;;;6.30;97.10;;;;;;4806907;29;20061;-82
2021/03/18 12:47:13;;;;;;;40.95;18.48;;;6.30;97.10;;;;;;4805103;29;20426;-83
2021/03/18 12:49:39;;;;;;;51.03;19.77;;;6.40;97.00;;;;;;4804290;29;20059;-83
2021/03/18 12:52:05;;;;;;;33.60;17.98;;;6.50;96.90;;;;;;4804816;29;20474;-82